createdAt,value
2018-11-01T00:00:00.707Z,92.40
2018-11-01T00:02:28.800Z,92.30
2018-11-01T00:04:56.883Z,92.20
2018-11-01T00:07:25.199Z,92.30
2018-11-01T00:09:53.350Z,92.30
2018-11-01T00:12:21.430Z,92.30
2018-11-01T00:14:49.543Z,92.30
2018-11-01T00:17:17.709Z,92.30
2018-11-01T00:19:46.003Z,92.30
2018-11-01T00:22:14.086Z,92.30
2018-11-01T00:24:42.186Z,92.20
2018-11-01T00:27:10.287Z,92.20
2018-11-01T00:29:38.437Z,92.30
2018-11-01T00:32:06.776Z,92.20
2018-11-01T00:34:34.894Z,92.20
2018-11-01T00:37:03.003Z,92.20
2018-11-01T00:39:31.151Z,92.20
2018-11-01T00:41:59.294Z,92.20
2018-11-01T00:44:27.397Z,92.10
2018-11-01T00:46:55.491Z,92.10
2018-11-01T00:49:23.590Z,92.20
2018-11-01T00:51:51.682Z,92.20
2018-11-01T00:54:19.771Z,92.10
2018-11-01T00:56:47.908Z,92.10
2018-11-01T00:59:16.075Z,92.00
2018-11-01T01:01:44.163Z,92.00
2018-11-01T01:04:12.285Z,92.00
2018-11-01T01:06:40.431Z,91.90
2018-11-01T01:09:10.551Z,91.90
2018-11-01T01:11:38.766Z,91.90
2018-11-01T01:14:07.482Z,91.80
2018-11-01T01:16:35.745Z,91.80
2018-11-01T01:19:04.247Z,91.90
2018-11-01T01:21:32.298Z,91.80
2018-11-01T01:24:00.394Z,91.80
2018-11-01T01:26:28.538Z,91.80
2018-11-01T01:28:56.666Z,91.70
2018-11-01T01:31:24.775Z,91.90
2018-11-01T01:33:52.966Z,92.10
2018-11-01T01:36:21.132Z,91.40
2018-11-01T01:38:49.226Z,91.30
2018-11-01T01:41:17.561Z,91.30
2018-11-01T01:43:45.750Z,91.30
2018-11-01T01:46:14.066Z,91.40
2018-11-01T01:48:42.525Z,91.40
2018-11-01T01:51:10.898Z,91.40
2018-11-01T01:53:39.021Z,91.40
2018-11-01T01:56:07.126Z,91.40
2018-11-01T01:58:35.278Z,91.40
2018-11-01T02:01:03.442Z,91.30
2018-11-01T02:03:31.458Z,91.30
2018-11-01T02:05:59.558Z,91.40
2018-11-01T02:08:27.681Z,91.30
2018-11-01T02:10:55.847Z,91.30
2018-11-01T02:13:23.959Z,91.30
2018-11-01T02:15:52.058Z,91.40
2018-11-01T02:18:20.190Z,91.40
2018-11-01T02:20:48.329Z,91.40
2018-11-01T02:23:16.462Z,91.30
2018-11-01T02:25:44.594Z,91.40
2018-11-01T02:28:14.818Z,91.30
2018-11-01T02:30:42.986Z,91.30
2018-11-01T02:33:11.088Z,91.30
2018-11-01T02:35:39.202Z,91.20
2018-11-01T02:38:07.388Z,91.20
2018-11-01T02:40:35.646Z,91.20
2018-11-01T02:43:03.738Z,91.20
2018-11-01T02:45:31.860Z,91.20
2018-11-01T02:48:00.006Z,91.20
2018-11-01T02:50:28.212Z,91.10
2018-11-01T02:52:56.550Z,91.10
2018-11-01T02:55:24.660Z,91.10
2018-11-01T02:57:52.775Z,91.10
2018-11-01T03:00:20.860Z,91.10
2018-11-01T03:02:49.078Z,91.10
2018-11-01T03:05:17.415Z,91.00
2018-11-01T03:07:45.642Z,91.00
2018-11-01T03:10:14.510Z,91.00
2018-11-01T03:12:42.774Z,91.00
2018-11-01T03:15:12.075Z,90.90
2018-11-01T03:17:40.546Z,90.80
2018-11-01T03:20:09.326Z,90.80
2018-11-01T03:22:37.550Z,90.80
2018-11-01T03:25:06.430Z,90.80
2018-11-01T03:27:34.570Z,90.80
2018-11-01T03:30:02.886Z,90.80
2018-11-01T03:32:31.055Z,90.70
2018-11-01T03:34:59.149Z,90.70
2018-11-01T03:37:27.254Z,90.70
2018-11-01T03:39:55.401Z,90.70
2018-11-01T03:42:23.771Z,90.70
2018-11-01T03:44:51.932Z,90.70
2018-11-01T03:47:20.073Z,90.70
2018-11-01T03:49:48.150Z,90.60
2018-11-01T03:52:16.268Z,90.60
2018-11-01T03:54:44.361Z,90.60
2018-11-01T03:57:12.490Z,90.60
2018-11-01T03:59:40.674Z,90.50
2018-11-01T04:02:08.865Z,90.50
2018-11-01T04:04:37.018Z,90.50
2018-11-01T04:07:05.388Z,90.50
2018-11-01T04:09:33.511Z,90.50
2018-11-01T04:12:01.723Z,90.50
2018-11-01T04:14:29.834Z,90.50
2018-11-01T04:16:57.954Z,90.40
2018-11-01T04:19:26.126Z,90.80
2018-11-01T04:21:58.846Z,90.50
2018-11-01T04:24:27.223Z,90.50
2018-11-01T04:26:55.395Z,90.40
2018-11-01T04:29:23.579Z,90.40
2018-11-01T04:31:51.735Z,90.50
2018-11-01T04:34:19.892Z,90.50
2018-11-01T04:36:48.051Z,90.50
2018-11-01T04:39:16.135Z,90.50
2018-11-01T04:41:44.278Z,90.80
2018-11-01T04:44:12.480Z,90.40
2018-11-01T04:46:40.643Z,90.50
2018-11-01T04:49:09.160Z,90.50
2018-11-01T04:51:37.426Z,90.40
2018-11-01T04:54:05.630Z,90.20
2018-11-01T04:56:33.846Z,90.20
2018-11-01T04:59:02.076Z,90.30
2018-11-01T05:01:30.133Z,90.40
2018-11-01T05:03:58.363Z,90.60
2018-11-01T05:06:26.478Z,90.60
2018-11-01T05:08:54.609Z,90.70
2018-11-01T05:11:22.773Z,90.70
2018-11-01T05:13:50.967Z,90.80
2018-11-01T05:16:19.086Z,90.80
2018-11-01T05:18:47.306Z,90.80
2018-11-01T05:21:16.502Z,90.90
2018-11-01T05:23:44.678Z,90.90
2018-11-01T05:26:12.917Z,91.00
2018-11-01T05:28:41.083Z,91.00
2018-11-01T05:31:09.302Z,91.00
2018-11-01T05:33:37.775Z,91.00
2018-11-01T05:36:06.051Z,91.00
2018-11-01T05:38:34.218Z,91.00
2018-11-01T05:41:02.354Z,91.00
2018-11-01T05:43:30.568Z,91.00
2018-11-01T05:45:59.118Z,91.00
2018-11-01T05:48:27.287Z,91.10
2018-11-01T05:50:55.510Z,91.10
2018-11-01T05:53:23.690Z,91.00
2018-11-01T05:55:51.902Z,90.90
2018-11-01T05:58:20.071Z,90.90
2018-11-01T06:00:48.282Z,90.90
2018-11-01T06:03:16.426Z,90.90
2018-11-01T06:05:44.654Z,90.90
2018-11-01T06:08:16.234Z,91.00
2018-11-01T06:10:44.359Z,90.90
2018-11-01T06:13:12.490Z,90.90
2018-11-01T06:15:40.630Z,90.90
2018-11-01T06:18:08.854Z,90.80
2018-11-01T06:20:37.143Z,90.80
2018-11-01T06:23:05.543Z,90.80
2018-11-01T06:25:33.647Z,90.80
2018-11-01T06:28:02.012Z,90.70
2018-11-01T06:30:30.226Z,90.70
2018-11-01T06:32:58.318Z,90.80
2018-11-01T06:35:29.226Z,90.80
2018-11-01T06:37:57.367Z,90.60
2018-11-01T06:40:25.941Z,90.70
2018-11-01T06:42:54.386Z,90.60
2018-11-01T06:45:23.230Z,90.60
2018-11-01T06:47:51.629Z,90.70
2018-11-01T06:50:23.395Z,90.60
2018-11-01T06:52:51.672Z,90.60
2018-11-01T06:55:19.996Z,90.70
2018-11-01T06:57:48.403Z,90.70
2018-11-01T07:00:16.744Z,90.70
2018-11-01T07:02:44.862Z,90.80
2018-11-01T07:05:14.018Z,90.70
2018-11-01T07:07:42.375Z,90.70
2018-11-01T07:10:12.311Z,90.80
2018-11-01T07:12:40.425Z,90.80
2018-11-01T07:15:09.979Z,91.10
2018-11-01T07:17:38.764Z,90.70
2018-11-01T07:20:07.816Z,90.70
2018-11-01T07:22:36.659Z,90.60
2018-11-01T07:25:05.743Z,90.60
2018-11-01T07:27:33.928Z,90.70
2018-11-01T07:30:02.058Z,90.50
2018-11-01T07:32:30.211Z,90.40
2018-11-01T07:34:58.698Z,90.40
2018-11-01T07:37:26.966Z,90.40
2018-11-01T07:39:55.634Z,90.30
2018-11-01T07:42:23.695Z,90.30
2018-11-01T07:44:51.830Z,90.30
2018-11-01T07:47:19.971Z,90.30
2018-11-01T07:49:48.114Z,90.30
2018-11-01T07:52:17.003Z,90.30
2018-11-01T07:54:45.178Z,90.30
2018-11-01T07:57:13.327Z,90.20
2018-11-01T07:59:41.479Z,90.20
2018-11-01T08:02:09.658Z,90.20
2018-11-01T08:04:38.075Z,90.10
2018-11-01T08:07:06.215Z,90.10
2018-11-01T08:09:34.730Z,90.10
2018-11-01T08:12:03.146Z,90.00
2018-11-01T08:14:31.283Z,90.00
2018-11-01T08:16:59.495Z,90.00
2018-11-01T08:19:27.663Z,90.00
2018-11-01T08:21:55.798Z,90.10
2018-11-01T08:24:23.892Z,90.00
2018-11-01T08:26:52.048Z,90.00
2018-11-01T08:29:21.314Z,90.20
2018-11-01T08:31:49.571Z,89.60
2018-11-01T08:34:17.744Z,89.30
2018-11-01T08:36:45.892Z,89.40
2018-11-01T08:39:14.406Z,89.30
2018-11-01T08:41:42.483Z,89.20
2018-11-01T08:44:10.768Z,89.20
2018-11-01T08:46:39.242Z,89.10
2018-11-01T08:49:07.546Z,89.00
2018-11-01T08:51:35.646Z,89.00
2018-11-01T08:54:03.802Z,88.90
2018-11-01T08:56:31.894Z,89.20
2018-11-01T08:59:00.051Z,89.20
2018-11-01T09:01:28.172Z,89.60
2018-11-01T09:03:56.334Z,90.00
2018-11-01T09:06:24.779Z,90.20
2018-11-01T09:08:52.872Z,90.20
2018-11-01T09:11:20.964Z,90.10
2018-11-01T09:13:49.079Z,90.20
2018-11-01T09:16:17.186Z,90.10
2018-11-01T09:18:45.286Z,90.00
2018-11-01T09:21:14.206Z,90.00
2018-11-01T09:23:42.330Z,89.60
2018-11-01T09:26:10.455Z,89.50
2018-11-01T09:28:38.608Z,89.30
2018-11-01T09:31:06.718Z,89.20
2018-11-01T09:33:35.281Z,89.20
2018-11-01T09:36:03.523Z,88.90
2018-11-01T09:38:32.038Z,89.40
2018-11-01T09:41:00.547Z,88.50
2018-11-01T09:43:28.694Z,88.40
2018-11-01T09:45:56.900Z,88.40
2018-11-01T09:48:25.158Z,88.20
2018-11-01T09:50:53.538Z,88.10
2018-11-01T09:53:22.234Z,88.00
2018-11-01T09:55:50.535Z,87.80
2018-11-01T09:58:50.554Z,87.70
2018-11-01T10:01:18.848Z,87.70
2018-11-01T10:03:47.999Z,87.50
2018-11-01T10:06:16.284Z,87.40
2018-11-01T10:08:44.442Z,87.40
2018-11-01T10:11:12.686Z,87.20
2018-11-01T10:13:40.899Z,87.20
2018-11-01T10:16:09.184Z,87.20
2018-11-01T10:18:37.538Z,86.90
2018-11-01T10:21:06.005Z,86.60
2018-11-01T10:23:34.623Z,86.70
2018-11-01T10:26:02.876Z,86.50
2018-11-01T10:28:32.330Z,86.40
2018-11-01T10:31:00.583Z,86.20
2018-11-01T10:33:28.756Z,86.20
2018-11-01T10:35:57.044Z,86.30
2018-11-01T10:38:25.426Z,86.30
2018-11-01T10:40:53.596Z,86.40
2018-11-01T10:43:22.886Z,86.50
2018-11-01T10:45:51.150Z,86.60
2018-11-01T10:48:19.333Z,86.50
2018-11-01T10:50:48.063Z,86.60
2018-11-01T10:53:16.210Z,86.60
2018-11-01T10:55:44.337Z,86.70
2018-11-01T10:58:12.558Z,86.80
2018-11-01T11:00:46.203Z,86.70
2018-11-01T11:03:14.201Z,86.60
2018-11-01T11:05:42.495Z,86.60
2018-11-01T11:08:10.670Z,86.40
2018-11-01T11:10:38.854Z,86.60
2018-11-01T11:13:07.063Z,86.70
2018-11-01T11:15:35.183Z,86.70
2018-11-01T11:18:03.312Z,86.80
2018-11-01T11:20:31.730Z,86.70
2018-11-01T11:22:59.655Z,86.60
2018-11-01T11:25:27.751Z,86.40
2018-11-01T11:27:56.110Z,86.40
2018-11-01T11:30:24.354Z,86.30
2018-11-01T11:32:53.044Z,86.10
2018-11-01T11:35:21.338Z,86.00
2018-11-01T11:37:49.827Z,86.00
2018-11-01T11:40:18.308Z,86.00
2018-11-01T11:42:46.811Z,85.90
2018-11-01T11:45:15.303Z,86.00
2018-11-01T11:47:44.494Z,86.10
2018-11-01T11:50:15.144Z,86.10
2018-11-01T11:52:44.699Z,86.10
2018-11-01T11:55:14.395Z,85.90
2018-11-01T11:57:42.607Z,86.10
2018-11-01T12:00:13.106Z,86.30
2018-11-01T12:02:41.606Z,86.30
2018-11-01T12:05:10.384Z,86.00
2018-11-01T12:07:45.527Z,85.90
2018-11-01T12:10:14.158Z,86.00
2018-11-01T12:12:42.471Z,86.10
2018-11-01T12:15:10.776Z,86.00
2018-11-01T12:17:39.086Z,86.00
2018-11-01T12:20:09.074Z,86.20
2018-11-01T12:22:37.524Z,86.30
2018-11-01T12:25:06.531Z,86.20
2018-11-01T12:27:34.730Z,86.10
2018-11-01T12:30:03.378Z,86.20
2018-11-01T12:32:31.619Z,90.40
2018-11-01T12:35:00.064Z,92.10
2018-11-01T12:37:29.013Z,92.30
2018-11-01T12:39:57.273Z,92.70
2018-11-01T12:42:25.403Z,92.90
2018-11-01T12:44:59.547Z,92.00
2018-11-01T12:47:28.079Z,91.50
2018-11-01T12:49:56.469Z,91.50
2018-11-01T12:52:25.207Z,91.80
2018-11-01T12:54:53.318Z,92.10
2018-11-01T12:57:21.459Z,92.20
2018-11-01T12:59:49.783Z,92.40
2018-11-01T13:02:18.096Z,92.40
2018-11-01T13:04:46.407Z,92.50
2018-11-01T13:07:17.131Z,92.60
2018-11-01T13:09:45.250Z,92.50
2018-11-01T13:12:13.384Z,92.30
2018-11-01T13:14:41.473Z,92.70
2018-11-01T13:17:09.751Z,92.40
2018-11-01T13:19:38.899Z,92.40
2018-11-01T13:22:07.026Z,92.40
2018-11-01T13:24:35.829Z,92.40
2018-11-01T13:27:04.059Z,92.40
2018-11-01T13:29:32.203Z,92.80
2018-11-01T13:32:00.334Z,92.40
2018-11-01T13:34:28.490Z,92.40
2018-11-01T13:36:56.684Z,92.30
2018-11-01T13:39:24.921Z,92.20
2018-11-01T13:41:53.078Z,92.20
2018-11-01T13:44:21.758Z,92.20
2018-11-01T13:46:49.858Z,92.10
2018-11-01T13:49:18.227Z,92.10
2018-11-01T13:51:46.341Z,92.10
2018-11-01T13:54:14.503Z,92.10
2018-11-01T13:56:42.738Z,92.00
2018-11-01T13:59:10.761Z,92.00
2018-11-01T14:01:38.953Z,92.00
2018-11-01T14:04:07.083Z,92.00
2018-11-01T14:06:35.191Z,92.00
2018-11-01T14:09:05.040Z,91.90
2018-11-01T14:11:33.155Z,92.00
2018-11-01T14:14:01.686Z,92.00
2018-11-01T14:16:29.583Z,92.00
2018-11-01T14:18:57.806Z,92.00
2018-11-01T14:21:25.894Z,92.00
2018-11-01T14:23:54.023Z,92.00
2018-11-01T14:26:22.905Z,92.00
2018-11-01T14:28:51.019Z,92.00
2018-11-01T14:31:19.760Z,92.00
2018-11-01T14:33:47.901Z,92.00
2018-11-01T14:36:16.046Z,92.00
2018-11-01T14:38:44.463Z,92.10
2018-11-01T14:41:12.758Z,92.00
2018-11-01T14:43:40.931Z,92.10
2018-11-01T14:46:09.157Z,92.10
2018-11-01T14:48:37.224Z,92.10
2018-11-01T14:51:05.890Z,92.10
2018-11-01T14:53:34.469Z,92.10
2018-11-01T14:56:03.611Z,92.10
2018-11-01T14:58:31.620Z,92.20
2018-11-01T15:00:58.471Z,92.50
2018-11-01T15:03:27.260Z,92.40
2018-11-01T15:05:55.417Z,92.10
2018-11-01T15:08:23.478Z,92.20
2018-11-01T15:10:51.577Z,92.20
2018-11-01T15:13:19.808Z,92.20
2018-11-01T15:15:47.805Z,92.20
2018-11-01T15:18:16.070Z,92.20
2018-11-01T15:20:44.183Z,92.20
2018-11-01T15:23:12.451Z,92.30
2018-11-01T15:25:40.522Z,92.10
2018-11-01T15:28:08.884Z,92.20
2018-11-01T15:30:37.170Z,92.20
2018-11-01T15:33:05.247Z,92.20
2018-11-01T15:35:33.395Z,92.20
2018-11-01T15:38:01.521Z,92.30
2018-11-01T15:40:29.631Z,92.30
2018-11-01T15:42:57.775Z,92.30
2018-11-01T15:45:25.888Z,92.30
2018-11-01T15:47:54.003Z,92.30
2018-11-01T15:50:22.094Z,92.20
2018-11-01T15:52:50.448Z,92.20
2018-11-01T15:55:18.577Z,92.30
2018-11-01T15:57:46.673Z,92.30
2018-11-01T16:00:15.198Z,92.30
2018-11-01T16:02:44.365Z,92.30
2018-11-01T16:05:13.425Z,92.30
2018-11-01T16:07:41.686Z,92.40
2018-11-01T16:10:10.441Z,92.30
2018-11-01T16:12:39.103Z,92.40
2018-11-01T16:15:10.484Z,92.30
2018-11-01T16:17:38.626Z,92.30
2018-11-01T16:20:07.010Z,92.20
2018-11-01T16:22:35.151Z,92.30
2018-11-01T16:25:03.353Z,92.30
2018-11-01T16:27:31.662Z,92.30
2018-11-01T16:29:59.851Z,92.30
2018-11-01T16:32:28.051Z,92.30
2018-11-01T16:34:56.243Z,92.30
2018-11-01T16:37:24.493Z,92.60
2018-11-01T16:39:52.899Z,92.30
2018-11-01T16:42:21.525Z,92.30
2018-11-01T16:44:49.720Z,92.30
2018-11-01T16:47:17.882Z,92.30
2018-11-01T16:49:46.174Z,92.30
2018-11-01T16:52:14.588Z,92.60
2018-11-01T16:54:43.740Z,92.30
2018-11-01T16:57:12.030Z,92.30
2018-11-01T16:59:40.211Z,92.30
2018-11-01T17:02:08.535Z,92.20
2018-11-01T17:04:36.646Z,92.20
2018-11-01T17:07:05.206Z,92.30
2018-11-01T17:09:33.554Z,92.30
2018-11-01T17:12:01.707Z,92.20
2018-11-01T17:14:32.087Z,92.30
2018-11-01T17:17:04.305Z,92.20
2018-11-01T17:19:32.644Z,92.20
2018-11-01T17:22:00.885Z,92.30
2018-11-01T17:24:29.035Z,92.20
2018-11-01T17:26:57.333Z,92.30
2018-11-01T17:29:25.504Z,92.20
2018-11-01T17:31:53.816Z,92.20
2018-11-01T17:34:22.168Z,92.20
2018-11-01T17:36:50.548Z,92.30
2018-11-01T17:39:18.712Z,92.20
2018-11-01T17:41:46.877Z,92.20
2018-11-01T17:44:15.176Z,92.30
2018-11-01T17:46:43.370Z,92.30
2018-11-01T17:49:11.510Z,92.20
2018-11-01T17:51:39.716Z,92.20
2018-11-01T17:54:12.266Z,92.20
2018-11-01T17:56:40.995Z,92.30
2018-11-01T17:59:09.097Z,92.20
2018-11-01T18:01:37.301Z,92.20
2018-11-01T18:04:06.222Z,92.30
2018-11-01T18:06:34.366Z,92.30
2018-11-01T18:09:02.567Z,92.30
2018-11-01T18:11:30.626Z,92.30
2018-11-01T18:13:58.744Z,92.20
2018-11-01T18:16:26.847Z,92.60
2018-11-01T18:18:54.966Z,92.20
2018-11-01T18:21:23.110Z,92.30
2018-11-01T18:23:51.239Z,92.30
2018-11-01T18:26:19.375Z,92.30
2018-11-01T18:28:47.530Z,92.30
2018-11-01T18:31:15.648Z,92.30
2018-11-01T18:33:43.818Z,92.30
2018-11-01T18:36:11.915Z,92.40
2018-11-01T18:38:40.115Z,92.40
2018-11-01T18:41:08.221Z,92.40
2018-11-01T18:43:36.335Z,92.40
2018-11-01T18:46:04.772Z,92.40
2018-11-01T18:48:32.942Z,92.40
2018-11-01T18:51:00.998Z,92.40
2018-11-01T18:53:29.863Z,92.40
2018-11-01T18:55:58.454Z,92.50
2018-11-01T18:58:26.586Z,92.40
2018-11-01T19:00:54.908Z,92.50
2018-11-01T19:03:29.496Z,92.50
2018-11-01T19:05:58.416Z,92.50
2018-11-01T19:08:26.688Z,92.50
2018-11-01T19:10:54.929Z,92.40
2018-11-01T19:13:23.489Z,92.40
2018-11-01T19:15:51.540Z,92.40
2018-11-01T19:18:19.688Z,92.40
2018-11-01T19:20:47.814Z,92.40
2018-11-01T19:23:15.900Z,92.40
2018-11-01T19:25:44.127Z,92.40
2018-11-01T19:28:12.272Z,92.50
2018-11-01T19:30:40.642Z,92.50
2018-11-01T19:33:10.298Z,92.40
2018-11-01T19:35:38.728Z,91.90
2018-11-01T19:38:07.020Z,91.60
2018-11-01T19:40:35.284Z,91.10
2018-11-01T19:43:03.414Z,90.70
2018-11-01T19:45:31.708Z,90.30
2018-11-01T19:47:59.888Z,89.80
2018-11-01T19:50:28.147Z,89.20
2018-11-01T19:52:56.490Z,88.50
2018-11-01T19:55:24.723Z,87.30
2018-11-01T19:57:52.896Z,87.30
2018-11-01T20:00:21.131Z,86.80
2018-11-01T20:02:56.148Z,86.30
2018-11-01T20:05:25.111Z,86.00
2018-11-01T20:08:01.562Z,85.60
2018-11-01T20:10:31.047Z,85.80
2018-11-01T20:12:59.076Z,85.40
2018-11-01T20:15:27.176Z,85.70
2018-11-01T20:17:55.429Z,85.30
2018-11-01T20:20:23.554Z,85.90
2018-11-01T20:22:51.862Z,86.80
2018-11-01T20:25:19.996Z,86.80
2018-11-01T20:27:48.103Z,86.30
2018-11-01T20:30:16.754Z,86.50
2018-11-01T20:32:45.655Z,87.40
2018-11-01T20:35:15.058Z,87.10
2018-11-01T20:37:43.440Z,87.00
2018-11-01T20:40:11.662Z,86.80
2018-11-01T20:42:40.419Z,86.90
2018-11-01T20:45:09.839Z,87.90
2018-11-01T20:47:38.260Z,87.40
2018-11-01T20:50:07.385Z,87.70
2018-11-01T20:52:35.584Z,87.30
2018-11-01T20:55:03.947Z,87.40
2018-11-01T20:57:32.224Z,87.60
2018-11-01T21:00:01.047Z,87.80
2018-11-01T21:02:29.206Z,87.50
2018-11-01T21:04:57.452Z,87.30
2018-11-01T21:07:25.622Z,87.30
2018-11-01T21:09:53.823Z,87.50
2018-11-01T21:12:21.996Z,87.40
2018-11-01T21:14:50.423Z,87.10
2018-11-01T21:17:18.674Z,87.30
2018-11-01T21:19:46.782Z,87.60
2018-11-01T21:22:15.444Z,88.10
2018-11-01T21:24:44.077Z,87.90
2018-11-01T21:27:12.304Z,87.80
2018-11-01T21:29:40.455Z,87.90
2018-11-01T21:32:09.187Z,88.00
2018-11-01T21:34:38.210Z,88.80
2018-11-01T21:37:06.692Z,89.20
2018-11-01T21:39:34.952Z,89.40
2018-11-01T21:42:03.395Z,89.90
2018-11-01T21:44:31.679Z,90.00
2018-11-01T21:46:59.946Z,90.00
2018-11-01T21:49:28.536Z,90.10
2018-11-01T21:51:57.106Z,90.20
2018-11-01T21:54:25.488Z,90.30
2018-11-01T21:56:53.723Z,90.40
2018-11-01T21:59:21.967Z,90.50
2018-11-01T22:01:50.719Z,90.60
2018-11-01T22:04:18.860Z,90.50
2018-11-01T22:06:46.966Z,90.70
2018-11-01T22:09:15.115Z,90.50
2018-11-01T22:11:43.191Z,90.90
2018-11-01T22:14:12.380Z,90.80
2018-11-01T22:16:40.435Z,91.00
2018-11-01T22:19:08.593Z,91.10
2018-11-01T22:21:36.711Z,91.10
2018-11-01T22:24:05.164Z,91.20
2018-11-01T22:26:33.590Z,91.40
2018-11-01T22:29:01.697Z,91.50
2018-11-01T22:31:29.970Z,91.40
2018-11-01T22:33:58.019Z,91.50
2018-11-01T22:36:26.090Z,91.50
2018-11-01T22:38:54.256Z,91.50
2018-11-01T22:41:22.302Z,91.60
2018-11-01T22:43:50.347Z,91.60
2018-11-01T22:46:18.411Z,91.70
2018-11-01T22:48:46.506Z,91.70
2018-11-01T22:51:15.054Z,91.70
2018-11-01T22:53:43.123Z,91.70
2018-11-01T22:56:11.730Z,91.80
2018-11-01T22:58:39.839Z,91.90
2018-11-01T23:01:07.910Z,92.00
2018-11-01T23:03:36.210Z,91.90
2018-11-01T23:06:04.402Z,92.00
2018-11-01T23:08:32.560Z,92.10
2018-11-01T23:11:00.674Z,92.10
2018-11-01T23:13:28.766Z,92.10
2018-11-01T23:15:56.859Z,92.10
2018-11-01T23:18:24.910Z,92.20
2018-11-01T23:20:52.995Z,92.20
2018-11-01T23:23:21.084Z,92.30
2018-11-01T23:25:49.166Z,92.30
2018-11-01T23:28:17.203Z,92.30
2018-11-01T23:30:45.266Z,92.30
2018-11-01T23:33:13.354Z,92.40
2018-11-01T23:35:41.393Z,92.40
2018-11-01T23:38:14.857Z,92.50
2018-11-01T23:40:48.378Z,92.40
2018-11-01T23:43:21.764Z,92.50
2018-11-01T23:45:55.337Z,92.50
2018-11-01T23:48:22.694Z,92.60
2018-11-01T23:51:05.042Z,92.50
2018-11-01T23:53:37.498Z,92.60
2018-11-01T23:56:05.626Z,92.60
2018-11-01T23:58:33.716Z,92.60
